sensor_id;sensor_type;location;lat;lon;timestamp;P1;durP1;ratioP1;P2;durP2;ratioP2
58214;SDS011;44011;52.218;1.480;2024-02-14T00:01:44;10.52;;;3.20;;
58214;SDS011;44011;52.218;1.480;2024-02-14T00:04:09;32.05;;;4.05;;
58214;SDS011;44011;52.218;1.480;2024-02-14T00:06:35;10.00;;;3.28;;
58214;SDS011;44011;52.218;1.480;2024-02-14T00:09:01;18.67;;;3.53;;
58214;SDS011;44011;52.218;1.480;2024-02-14T00:11:27;6.32;;;2.40;;
58214;SDS011;44011;52.218;1.480;2024-02-14T00:13:52;8.43;;;2.70;;
58214;SDS011;44011;52.218;1.480;2024-02-14T00:16:17;10.00;;;2.72;;
58214;SDS011;44011;52.218;1.480;2024-02-14T00:18:43;10.68;;;3.17;;
58214;SDS011;44011;52.218;1.480;2024-02-14T00:21:08;9.55;;;2.40;;
58214;SDS011;44011;52.218;1.480;2024-02-14T00:23:33;13.13;;;2.67;;
58214;SDS011;44011;52.218;1.480;2024-02-14T00:25:58;13.32;;;2.70;;
58214;SDS011;44011;52.218;1.480;2024-02-14T00:28:24;12.85;;;2.83;;
58214;SDS011;44011;52.218;1.480;2024-02-14T00:30:51;12.27;;;2.35;;
58214;SDS011;44011;52.218;1.480;2024-02-14T00:33:17;6.25;;;2.65;;
58214;SDS011;44011;52.218;1.480;2024-02-14T00:35:43;16.73;;;2.65;;
58214;SDS011;44011;52.218;1.480;2024-02-14T00:38:09;7.10;;;3.30;;
58214;SDS011;44011;52.218;1.480;2024-02-14T00:40:34;12.48;;;2.08;;
58214;SDS011;44011;52.218;1.480;2024-02-14T00:42:59;9.27;;;2.58;;
58214;SDS011;44011;52.218;1.480;2024-02-14T00:45:25;6.05;;;2.00;;
58214;SDS011;44011;52.218;1.480;2024-02-14T00:47:50;9.73;;;3.67;;
58214;SDS011;44011;52.218;1.480;2024-02-14T00:50:15;9.05;;;1.75;;
58214;SDS011;44011;52.218;1.480;2024-02-14T00:52:41;9.05;;;2.20;;
58214;SDS011;44011;52.218;1.480;2024-02-14T00:55:06;7.30;;;2.00;;
58214;SDS011;44011;52.218;1.480;2024-02-14T00:57:32;13.00;;;1.77;;
58214;SDS011;44011;52.218;1.480;2024-02-14T00:59:57;7.88;;;1.98;;
58214;SDS011;44011;52.218;1.480;2024-02-14T01:02:22;7.30;;;1.85;;
58214;SDS011;44011;52.218;1.480;2024-02-14T01:04:47;12.65;;;2.63;;
58214;SDS011;44011;52.218;1.480;2024-02-14T01:07:13;11.75;;;2.35;;
58214;SDS011;44011;52.218;1.480;2024-02-14T01:09:38;12.15;;;3.53;;
58214;SDS011;44011;52.218;1.480;2024-02-14T01:12:03;8.13;;;1.73;;
58214;SDS011;44011;52.218;1.480;2024-02-14T01:14:29;4.90;;;1.88;;
58214;SDS011;44011;52.218;1.480;2024-02-14T01:16:55;12.65;;;2.70;;
58214;SDS011;44011;52.218;1.480;2024-02-14T01:19:21;16.02;;;2.92;;
58214;SDS011;44011;52.218;1.480;2024-02-14T01:21:48;9.07;;;2.42;;
58214;SDS011;44011;52.218;1.480;2024-02-14T01:24:14;4.28;;;1.83;;
58214;SDS011;44011;52.218;1.480;2024-02-14T01:26:40;13.20;;;2.63;;
58214;SDS011;44011;52.218;1.480;2024-02-14T01:29:05;10.65;;;2.03;;
58214;SDS011;44011;52.218;1.480;2024-02-14T01:31:31;13.35;;;2.72;;
58214;SDS011;44011;52.218;1.480;2024-02-14T01:33:56;11.10;;;2.67;;
58214;SDS011;44011;52.218;1.480;2024-02-14T01:36:22;13.65;;;3.00;;
58214;SDS011;44011;52.218;1.480;2024-02-14T01:38:47;13.48;;;2.72;;
58214;SDS011;44011;52.218;1.480;2024-02-14T01:41:13;12.13;;;3.38;;
58214;SDS011;44011;52.218;1.480;2024-02-14T01:43:38;16.13;;;2.63;;
58214;SDS011;44011;52.218;1.480;2024-02-14T01:46:07;12.02;;;3.35;;
58214;SDS011;44011;52.218;1.480;2024-02-14T01:48:35;13.13;;;3.30;;
58214;SDS011;44011;52.218;1.480;2024-02-14T01:51:01;13.88;;;2.92;;
58214;SDS011;44011;52.218;1.480;2024-02-14T01:53:27;11.40;;;2.90;;
58214;SDS011;44011;52.218;1.480;2024-02-14T01:55:55;14.93;;;3.22;;
58214;SDS011;44011;52.218;1.480;2024-02-14T01:58:20;8.80;;;2.22;;
58214;SDS011;44011;52.218;1.480;2024-02-14T02:00:46;11.85;;;2.58;;
58214;SDS011;44011;52.218;1.480;2024-02-14T02:03:11;17.80;;;2.75;;
58214;SDS011;44011;52.218;1.480;2024-02-14T02:05:37;16.90;;;2.88;;
58214;SDS011;44011;52.218;1.480;2024-02-14T02:08:02;15.93;;;3.70;;
58214;SDS011;44011;52.218;1.480;2024-02-14T02:10:27;9.43;;;2.05;;
58214;SDS011;44011;52.218;1.480;2024-02-14T02:12:57;15.52;;;3.00;;
58214;SDS011;44011;52.218;1.480;2024-02-14T02:15:23;11.45;;;2.38;;
58214;SDS011;44011;52.218;1.480;2024-02-14T02:17:48;11.55;;;2.50;;
58214;SDS011;44011;52.218;1.480;2024-02-14T02:20:17;8.95;;;2.22;;
58214;SDS011;44011;52.218;1.480;2024-02-14T02:22:45;10.55;;;2.63;;
58214;SDS011;44011;52.218;1.480;2024-02-14T02:25:12;15.63;;;3.63;;
58214;SDS011;44011;52.218;1.480;2024-02-14T02:27:37;11.45;;;2.58;;
58214;SDS011;44011;52.218;1.480;2024-02-14T02:30:03;19.67;;;3.53;;
58214;SDS011;44011;52.218;1.480;2024-02-14T02:32:29;12.52;;;2.80;;
58214;SDS011;44011;52.218;1.480;2024-02-14T02:34:55;14.15;;;3.13;;
58214;SDS011;44011;52.218;1.480;2024-02-14T02:37:21;10.52;;;2.40;;
58214;SDS011;44011;52.218;1.480;2024-02-14T02:39:46;15.05;;;3.10;;
58214;SDS011;44011;52.218;1.480;2024-02-14T02:42:12;10.30;;;2.75;;
58214;SDS011;44011;52.218;1.480;2024-02-14T02:44:38;12.00;;;2.85;;
58214;SDS011;44011;52.218;1.480;2024-02-14T02:47:04;13.85;;;2.83;;
58214;SDS011;44011;52.218;1.480;2024-02-14T02:49:29;15.60;;;3.15;;
58214;SDS011;44011;52.218;1.480;2024-02-14T02:51:54;10.30;;;2.90;;
58214;SDS011;44011;52.218;1.480;2024-02-14T02:54:20;13.65;;;2.67;;
58214;SDS011;44011;52.218;1.480;2024-02-14T02:56:48;15.40;;;2.85;;
58214;SDS011;44011;52.218;1.480;2024-02-14T02:59:14;11.80;;;3.67;;
58214;SDS011;44011;52.218;1.480;2024-02-14T03:01:42;12.13;;;2.35;;
58214;SDS011;44011;52.218;1.480;2024-02-14T03:04:07;13.63;;;2.60;;
58214;SDS011;44011;52.218;1.480;2024-02-14T03:06:33;16.40;;;3.03;;
58214;SDS011;44011;52.218;1.480;2024-02-14T03:08:58;16.50;;;3.08;;
58214;SDS011;44011;52.218;1.480;2024-02-14T03:11:24;10.52;;;2.85;;
58214;SDS011;44011;52.218;1.480;2024-02-14T03:13:51;13.10;;;2.97;;
58214;SDS011;44011;52.218;1.480;2024-02-14T03:16:16;18.70;;;4.00;;
58214;SDS011;44011;52.218;1.480;2024-02-14T03:18:42;16.92;;;2.88;;
58214;SDS011;44011;52.218;1.480;2024-02-14T03:21:08;15.38;;;2.97;;
58214;SDS011;44011;52.218;1.480;2024-02-14T03:23:33;17.27;;;3.47;;
58214;SDS011;44011;52.218;1.480;2024-02-14T03:25:58;19.30;;;4.15;;
58214;SDS011;44011;52.218;1.480;2024-02-14T03:28:23;10.48;;;3.38;;
58214;SDS011;44011;52.218;1.480;2024-02-14T03:30:50;11.93;;;2.97;;
58214;SDS011;44011;52.218;1.480;2024-02-14T03:33:15;20.63;;;3.65;;
58214;SDS011;44011;52.218;1.480;2024-02-14T03:35:40;22.65;;;3.50;;
58214;SDS011;44011;52.218;1.480;2024-02-14T03:38:06;19.15;;;3.42;;
58214;SDS011;44011;52.218;1.480;2024-02-14T03:40:33;22.63;;;4.00;;
58214;SDS011;44011;52.218;1.480;2024-02-14T03:42:58;16.50;;;3.72;;
58214;SDS011;44011;52.218;1.480;2024-02-14T03:45:24;17.30;;;3.75;;
58214;SDS011;44011;52.218;1.480;2024-02-14T03:47:49;14.95;;;3.90;;
58214;SDS011;44011;52.218;1.480;2024-02-14T03:50:14;24.05;;;3.88;;
58214;SDS011;44011;52.218;1.480;2024-02-14T03:52:41;15.50;;;3.72;;
58214;SDS011;44011;52.218;1.480;2024-02-14T03:55:07;14.15;;;3.95;;
58214;SDS011;44011;52.218;1.480;2024-02-14T03:57:33;17.10;;;4.35;;
58214;SDS011;44011;52.218;1.480;2024-02-14T04:00:03;18.67;;;3.75;;
58214;SDS011;44011;52.218;1.480;2024-02-14T04:02:32;23.38;;;4.18;;
58214;SDS011;44011;52.218;1.480;2024-02-14T04:04:57;11.10;;;3.92;;
58214;SDS011;44011;52.218;1.480;2024-02-14T04:07:23;26.48;;;4.97;;
58214;SDS011;44011;52.218;1.480;2024-02-14T04:09:49;22.92;;;3.95;;
58214;SDS011;44011;52.218;1.480;2024-02-14T04:12:14;20.63;;;4.07;;
58214;SDS011;44011;52.218;1.480;2024-02-14T04:14:39;18.60;;;4.85;;
58214;SDS011;44011;52.218;1.480;2024-02-14T04:17:04;21.05;;;5.00;;
58214;SDS011;44011;52.218;1.480;2024-02-14T04:19:32;16.88;;;4.53;;
58214;SDS011;44011;52.218;1.480;2024-02-14T04:21:57;14.80;;;3.85;;
58214;SDS011;44011;52.218;1.480;2024-02-14T04:24:23;18.35;;;4.07;;
58214;SDS011;44011;52.218;1.480;2024-02-14T04:26:48;30.55;;;4.63;;
58214;SDS011;44011;52.218;1.480;2024-02-14T04:29:14;20.67;;;5.35;;
58214;SDS011;44011;52.218;1.480;2024-02-14T04:31:39;18.23;;;4.25;;
58214;SDS011;44011;52.218;1.480;2024-02-14T04:34:05;20.58;;;4.05;;
58214;SDS011;44011;52.218;1.480;2024-02-14T04:36:32;17.17;;;3.70;;
58214;SDS011;44011;52.218;1.480;2024-02-14T04:38:58;15.80;;;4.18;;
58214;SDS011;44011;52.218;1.480;2024-02-14T04:41:23;18.90;;;4.10;;
58214;SDS011;44011;52.218;1.480;2024-02-14T04:43:48;25.05;;;4.68;;
58214;SDS011;44011;52.218;1.480;2024-02-14T04:46:13;15.95;;;4.78;;
58214;SDS011;44011;52.218;1.480;2024-02-14T04:48:39;15.30;;;3.72;;
58214;SDS011;44011;52.218;1.480;2024-02-14T04:51:04;10.88;;;3.78;;
58214;SDS011;44011;52.218;1.480;2024-02-14T04:53:30;12.35;;;3.53;;
58214;SDS011;44011;52.218;1.480;2024-02-14T04:55:55;9.77;;;3.08;;
58214;SDS011;44011;52.218;1.480;2024-02-14T04:58:20;16.52;;;4.20;;
58214;SDS011;44011;52.218;1.480;2024-02-14T05:00:46;9.00;;;2.53;;
58214;SDS011;44011;52.218;1.480;2024-02-14T05:03:11;16.25;;;3.65;;
58214;SDS011;44011;52.218;1.480;2024-02-14T05:05:36;13.57;;;2.55;;
58214;SDS011;44011;52.218;1.480;2024-02-14T05:08:02;16.10;;;4.90;;
58214;SDS011;44011;52.218;1.480;2024-02-14T05:10:28;8.95;;;2.90;;
58214;SDS011;44011;52.218;1.480;2024-02-14T05:12:53;16.23;;;3.23;;
58214;SDS011;44011;52.218;1.480;2024-02-14T05:15:19;18.38;;;2.90;;
58214;SDS011;44011;52.218;1.480;2024-02-14T05:17:44;12.35;;;3.17;;
58214;SDS011;44011;52.218;1.480;2024-02-14T05:20:10;12.90;;;3.05;;
58214;SDS011;44011;52.218;1.480;2024-02-14T05:22:36;9.18;;;2.80;;
58214;SDS011;44011;52.218;1.480;2024-02-14T05:25:02;11.05;;;2.80;;
58214;SDS011;44011;52.218;1.480;2024-02-14T05:27:27;11.25;;;3.05;;
58214;SDS011;44011;52.218;1.480;2024-02-14T05:29:52;18.52;;;3.40;;
58214;SDS011;44011;52.218;1.480;2024-02-14T05:32:18;18.25;;;3.42;;
58214;SDS011;44011;52.218;1.480;2024-02-14T05:34:43;17.25;;;3.03;;
58214;SDS011;44011;52.218;1.480;2024-02-14T05:37:08;8.05;;;2.92;;
58214;SDS011;44011;52.218;1.480;2024-02-14T05:39:34;12.48;;;2.70;;
58214;SDS011;44011;52.218;1.480;2024-02-14T05:41:59;12.32;;;3.20;;
58214;SDS011;44011;52.218;1.480;2024-02-14T05:44:24;8.15;;;2.88;;
58214;SDS011;44011;52.218;1.480;2024-02-14T05:46:52;11.35;;;4.30;;
58214;SDS011;44011;52.218;1.480;2024-02-14T05:49:17;13.65;;;3.85;;
58214;SDS011;44011;52.218;1.480;2024-02-14T05:51:42;13.52;;;3.30;;
58214;SDS011;44011;52.218;1.480;2024-02-14T05:54:08;18.27;;;3.60;;
58214;SDS011;44011;52.218;1.480;2024-02-14T05:56:33;15.07;;;3.30;;
58214;SDS011;44011;52.218;1.480;2024-02-14T05:58:58;10.40;;;4.35;;
58214;SDS011;44011;52.218;1.480;2024-02-14T06:01:23;9.57;;;2.97;;
58214;SDS011;44011;52.218;1.480;2024-02-14T06:03:48;10.18;;;2.63;;
58214;SDS011;44011;52.218;1.480;2024-02-14T06:06:14;15.68;;;3.30;;
58214;SDS011;44011;52.218;1.480;2024-02-14T06:08:39;9.02;;;3.13;;
58214;SDS011;44011;52.218;1.480;2024-02-14T06:11:04;9.70;;;2.60;;
58214;SDS011;44011;52.218;1.480;2024-02-14T06:13:30;13.10;;;2.70;;
58214;SDS011;44011;52.218;1.480;2024-02-14T06:15:55;14.63;;;2.63;;
58214;SDS011;44011;52.218;1.480;2024-02-14T06:18:20;12.02;;;3.05;;
58214;SDS011;44011;52.218;1.480;2024-02-14T06:20:46;8.02;;;2.03;;
58214;SDS011;44011;52.218;1.480;2024-02-14T06:23:13;12.65;;;2.22;;
58214;SDS011;44011;52.218;1.480;2024-02-14T06:25:38;12.75;;;2.78;;
58214;SDS011;44011;52.218;1.480;2024-02-14T06:28:03;9.13;;;2.17;;
58214;SDS011;44011;52.218;1.480;2024-02-14T06:30:28;12.20;;;2.83;;
58214;SDS011;44011;52.218;1.480;2024-02-14T06:32:54;8.68;;;2.30;;
58214;SDS011;44011;52.218;1.480;2024-02-14T06:35:19;8.63;;;2.38;;
58214;SDS011;44011;52.218;1.480;2024-02-14T06:37:46;6.88;;;2.20;;
58214;SDS011;44011;52.218;1.480;2024-02-14T06:40:11;10.02;;;2.35;;
58214;SDS011;44011;52.218;1.480;2024-02-14T06:42:36;3.97;;;1.95;;
58214;SDS011;44011;52.218;1.480;2024-02-14T06:45:02;9.27;;;1.90;;
58214;SDS011;44011;52.218;1.480;2024-02-14T06:47:28;7.38;;;2.63;;
58214;SDS011;44011;52.218;1.480;2024-02-14T06:49:55;6.25;;;2.05;;
58214;SDS011;44011;52.218;1.480;2024-02-14T06:52:20;5.43;;;2.50;;
58214;SDS011;44011;52.218;1.480;2024-02-14T06:54:45;4.50;;;1.70;;
58214;SDS011;44011;52.218;1.480;2024-02-14T06:57:10;7.70;;;2.83;;
58214;SDS011;44011;52.218;1.480;2024-02-14T06:59:36;6.65;;;1.92;;
58214;SDS011;44011;52.218;1.480;2024-02-14T07:02:02;5.80;;;2.17;;
58214;SDS011;44011;52.218;1.480;2024-02-14T07:04:28;6.18;;;2.70;;
58214;SDS011;44011;52.218;1.480;2024-02-14T07:06:53;12.65;;;2.67;;
58214;SDS011;44011;52.218;1.480;2024-02-14T07:09:19;10.82;;;2.78;;
58214;SDS011;44011;52.218;1.480;2024-02-14T07:11:44;5.78;;;1.65;;
58214;SDS011;44011;52.218;1.480;2024-02-14T07:14:10;10.38;;;2.40;;
58214;SDS011;44011;52.218;1.480;2024-02-14T07:16:36;5.70;;;1.73;;
58214;SDS011;44011;52.218;1.480;2024-02-14T07:19:01;2.42;;;1.38;;
58214;SDS011;44011;52.218;1.480;2024-02-14T07:21:27;6.47;;;1.80;;
58214;SDS011;44011;52.218;1.480;2024-02-14T07:23:52;4.57;;;1.27;;
58214;SDS011;44011;52.218;1.480;2024-02-14T07:26:18;6.35;;;1.83;;
58214;SDS011;44011;52.218;1.480;2024-02-14T07:28:43;5.07;;;1.50;;
58214;SDS011;44011;52.218;1.480;2024-02-14T07:31:09;9.07;;;2.35;;
58214;SDS011;44011;52.218;1.480;2024-02-14T07:33:34;7.57;;;2.03;;
58214;SDS011;44011;52.218;1.480;2024-02-14T07:36:00;6.18;;;1.92;;
58214;SDS011;44011;52.218;1.480;2024-02-14T07:38:25;9.73;;;1.73;;
58214;SDS011;44011;52.218;1.480;2024-02-14T07:40:51;7.38;;;1.85;;
58214;SDS011;44011;52.218;1.480;2024-02-14T07:43:17;4.22;;;1.98;;
58214;SDS011;44011;52.218;1.480;2024-02-14T07:45:42;6.10;;;2.10;;
58214;SDS011;44011;52.218;1.480;2024-02-14T07:48:07;4.65;;;2.47;;
58214;SDS011;44011;52.218;1.480;2024-02-14T07:50:33;6.53;;;2.08;;
58214;SDS011;44011;52.218;1.480;2024-02-14T07:52:58;7.65;;;2.13;;
58214;SDS011;44011;52.218;1.480;2024-02-14T07:55:23;7.37;;;2.00;;
58214;SDS011;44011;52.218;1.480;2024-02-14T07:57:49;7.95;;;2.17;;
58214;SDS011;44011;52.218;1.480;2024-02-14T08:00:14;10.57;;;2.40;;
58214;SDS011;44011;52.218;1.480;2024-02-14T08:02:47;15.00;;;2.97;;
58214;SDS011;44011;52.218;1.480;2024-02-14T08:05:12;9.07;;;2.10;;
58214;SDS011;44011;52.218;1.480;2024-02-14T08:07:37;4.93;;;1.65;;
58214;SDS011;44011;52.218;1.480;2024-02-14T08:10:03;8.25;;;1.90;;
58214;SDS011;44011;52.218;1.480;2024-02-14T08:12:31;4.88;;;2.03;;
58214;SDS011;44011;52.218;1.480;2024-02-14T08:14:56;7.10;;;2.25;;
58214;SDS011;44011;52.218;1.480;2024-02-14T08:17:21;7.00;;;1.90;;
58214;SDS011;44011;52.218;1.480;2024-02-14T08:19:47;7.35;;;2.60;;
58214;SDS011;44011;52.218;1.480;2024-02-14T08:22:12;4.25;;;1.80;;
58214;SDS011;44011;52.218;1.480;2024-02-14T08:24:38;6.32;;;2.60;;
58214;SDS011;44011;52.218;1.480;2024-02-14T08:27:03;6.35;;;2.10;;
58214;SDS011;44011;52.218;1.480;2024-02-14T08:29:31;3.70;;;2.20;;
58214;SDS011;44011;52.218;1.480;2024-02-14T08:31:57;4.53;;;2.00;;
58214;SDS011;44011;52.218;1.480;2024-02-14T08:34:22;5.97;;;2.38;;
58214;SDS011;44011;52.218;1.480;2024-02-14T08:36:47;10.63;;;2.45;;
58214;SDS011;44011;52.218;1.480;2024-02-14T08:39:12;6.85;;;2.78;;
58214;SDS011;44011;52.218;1.480;2024-02-14T08:41:38;5.22;;;2.42;;
58214;SDS011;44011;52.218;1.480;2024-02-14T08:44:04;3.03;;;2.33;;
58214;SDS011;44011;52.218;1.480;2024-02-14T08:46:30;4.05;;;2.78;;
58214;SDS011;44011;52.218;1.480;2024-02-14T08:48:55;6.97;;;2.72;;
58214;SDS011;44011;52.218;1.480;2024-02-14T08:51:20;5.82;;;2.80;;
58214;SDS011;44011;52.218;1.480;2024-02-14T08:53:46;9.23;;;3.17;;
58214;SDS011;44011;52.218;1.480;2024-02-14T08:56:11;4.88;;;2.25;;
58214;SDS011;44011;52.218;1.480;2024-02-14T08:58:36;9.82;;;2.45;;
58214;SDS011;44011;52.218;1.480;2024-02-14T09:01:01;4.88;;;2.65;;
58214;SDS011;44011;52.218;1.480;2024-02-14T09:03:27;8.07;;;2.80;;
58214;SDS011;44011;52.218;1.480;2024-02-14T09:05:52;2.50;;;1.75;;
58214;SDS011;44011;52.218;1.480;2024-02-14T09:08:18;5.28;;;1.95;;
58214;SDS011;44011;52.218;1.480;2024-02-14T09:10:43;10.98;;;3.08;;
58214;SDS011;44011;52.218;1.480;2024-02-14T09:13:10;7.88;;;2.75;;
58214;SDS011;44011;52.218;1.480;2024-02-14T09:15:35;4.78;;;1.83;;
58214;SDS011;44011;52.218;1.480;2024-02-14T09:18:01;3.95;;;2.15;;
58214;SDS011;44011;52.218;1.480;2024-02-14T09:20:28;4.25;;;2.00;;
58214;SDS011;44011;52.218;1.480;2024-02-14T09:22:53;4.15;;;2.15;;
58214;SDS011;44011;52.218;1.480;2024-02-14T09:25:19;4.85;;;2.15;;
58214;SDS011;44011;52.218;1.480;2024-02-14T09:27:44;4.18;;;1.80;;
58214;SDS011;44011;52.218;1.480;2024-02-14T09:30:12;6.25;;;2.45;;
58214;SDS011;44011;52.218;1.480;2024-02-14T09:32:37;7.90;;;2.80;;
58214;SDS011;44011;52.218;1.480;2024-02-14T09:35:03;4.93;;;2.33;;
58214;SDS011;44011;52.218;1.480;2024-02-14T09:37:31;7.60;;;2.50;;
58214;SDS011;44011;52.218;1.480;2024-02-14T09:39:57;4.47;;;2.55;;
58214;SDS011;44011;52.218;1.480;2024-02-14T09:42:25;7.63;;;2.92;;
58214;SDS011;44011;52.218;1.480;2024-02-14T09:44:52;3.85;;;2.30;;
58214;SDS011;44011;52.218;1.480;2024-02-14T09:47:17;7.28;;;3.22;;
58214;SDS011;44011;52.218;1.480;2024-02-14T09:49:44;6.20;;;2.30;;
58214;SDS011;44011;52.218;1.480;2024-02-14T09:52:09;5.22;;;2.58;;
58214;SDS011;44011;52.218;1.480;2024-02-14T09:54:36;6.80;;;2.75;;
58214;SDS011;44011;52.218;1.480;2024-02-14T09:57:03;6.43;;;2.10;;
58214;SDS011;44011;52.218;1.480;2024-02-14T09:59:29;4.20;;;2.00;;
58214;SDS011;44011;52.218;1.480;2024-02-14T10:01:54;3.35;;;1.90;;
58214;SDS011;44011;52.218;1.480;2024-02-14T10:04:20;4.05;;;2.35;;
58214;SDS011;44011;52.218;1.480;2024-02-14T10:06:47;4.88;;;2.15;;
58214;SDS011;44011;52.218;1.480;2024-02-14T10:09:17;2.20;;;2.00;;
58214;SDS011;44011;52.218;1.480;2024-02-14T10:11:43;10.85;;;3.13;;
58214;SDS011;44011;52.218;1.480;2024-02-14T10:14:09;3.08;;;2.33;;
58214;SDS011;44011;52.218;1.480;2024-02-14T10:16:37;4.70;;;2.28;;
58214;SDS011;44011;52.218;1.480;2024-02-14T10:19:02;2.67;;;2.13;;
58214;SDS011;44011;52.218;1.480;2024-02-14T10:21:29;2.97;;;2.22;;
58214;SDS011;44011;52.218;1.480;2024-02-14T10:23:54;4.32;;;2.55;;
58214;SDS011;44011;52.218;1.480;2024-02-14T10:26:22;2.60;;;2.10;;
58214;SDS011;44011;52.218;1.480;2024-02-14T10:28:48;4.50;;;2.30;;
58214;SDS011;44011;52.218;1.480;2024-02-14T10:31:15;3.38;;;2.38;;
58214;SDS011;44011;52.218;1.480;2024-02-14T10:33:41;3.38;;;2.53;;
58214;SDS011;44011;52.218;1.480;2024-02-14T10:36:09;5.43;;;2.58;;
58214;SDS011;44011;52.218;1.480;2024-02-14T10:38:37;4.57;;;2.63;;
58214;SDS011;44011;52.218;1.480;2024-02-14T10:41:02;4.90;;;2.63;;
58214;SDS011;44011;52.218;1.480;2024-02-14T10:43:28;4.15;;;2.45;;
58214;SDS011;44011;52.218;1.480;2024-02-14T10:45:53;5.38;;;3.08;;
58214;SDS011;44011;52.218;1.480;2024-02-14T10:48:19;4.07;;;2.30;;
58214;SDS011;44011;52.218;1.480;2024-02-14T10:50:50;3.03;;;2.60;;
58214;SDS011;44011;52.218;1.480;2024-02-14T10:53:17;4.07;;;2.70;;
58214;SDS011;44011;52.218;1.480;2024-02-14T10:55:44;4.47;;;2.92;;
58214;SDS011;44011;52.218;1.480;2024-02-14T10:58:10;3.78;;;2.30;;
58214;SDS011;44011;52.218;1.480;2024-02-14T11:00:36;4.53;;;2.70;;
58214;SDS011;44011;52.218;1.480;2024-02-14T11:03:02;6.07;;;2.58;;
58214;SDS011;44011;52.218;1.480;2024-02-14T11:05:27;4.90;;;2.53;;
58214;SDS011;44011;52.218;1.480;2024-02-14T11:07:52;4.38;;;2.30;;
58214;SDS011;44011;52.218;1.480;2024-02-14T11:10:19;3.28;;;2.63;;
58214;SDS011;44011;52.218;1.480;2024-02-14T11:12:46;2.95;;;2.45;;
58214;SDS011;44011;52.218;1.480;2024-02-14T11:17:38;3.35;;;2.35;;
58214;SDS011;44011;52.218;1.480;2024-02-14T11:22:38;4.72;;;3.33;;
58214;SDS011;44011;52.218;1.480;2024-02-14T11:25:06;3.55;;;2.58;;
58214;SDS011;44011;52.218;1.480;2024-02-14T11:27:32;3.70;;;2.75;;
58214;SDS011;44011;52.218;1.480;2024-02-14T11:29:58;3.83;;;2.67;;
58214;SDS011;44011;52.218;1.480;2024-02-14T11:32:24;6.18;;;3.40;;
58214;SDS011;44011;52.218;1.480;2024-02-14T11:34:55;3.13;;;2.83;;
58214;SDS011;44011;52.218;1.480;2024-02-14T11:37:26;6.78;;;3.03;;
58214;SDS011;44011;52.218;1.480;2024-02-14T11:39:52;5.63;;;3.33;;
58214;SDS011;44011;52.218;1.480;2024-02-14T11:42:17;5.95;;;3.58;;
58214;SDS011;44011;52.218;1.480;2024-02-14T11:44:43;5.70;;;3.33;;
58214;SDS011;44011;52.218;1.480;2024-02-14T11:47:10;4.43;;;3.55;;
58214;SDS011;44011;52.218;1.480;2024-02-14T11:49:36;7.32;;;4.90;;
58214;SDS011;44011;52.218;1.480;2024-02-14T11:52:04;7.88;;;4.00;;
58214;SDS011;44011;52.218;1.480;2024-02-14T11:54:29;5.97;;;3.45;;
58214;SDS011;44011;52.218;1.480;2024-02-14T11:56:54;6.32;;;3.25;;
58214;SDS011;44011;52.218;1.480;2024-02-14T11:59:20;8.13;;;3.22;;
58214;SDS011;44011;52.218;1.480;2024-02-14T12:01:45;3.92;;;3.20;;
58214;SDS011;44011;52.218;1.480;2024-02-14T12:04:11;3.50;;;2.70;;
58214;SDS011;44011;52.218;1.480;2024-02-14T12:06:38;3.92;;;2.13;;
58214;SDS011;44011;52.218;1.480;2024-02-14T12:09:06;3.47;;;2.72;;
58214;SDS011;44011;52.218;1.480;2024-02-14T12:11:34;3.28;;;2.38;;
58214;SDS011;44011;52.218;1.480;2024-02-14T12:14:02;3.42;;;2.38;;
58214;SDS011;44011;52.218;1.480;2024-02-14T12:16:28;4.13;;;3.03;;
58214;SDS011;44011;52.218;1.480;2024-02-14T12:19:09;4.50;;;2.20;;
58214;SDS011;44011;52.218;1.480;2024-02-14T12:21:38;2.85;;;1.88;;
58214;SDS011;44011;52.218;1.480;2024-02-14T12:24:04;3.03;;;2.42;;
58214;SDS011;44011;52.218;1.480;2024-02-14T12:26:30;2.60;;;2.13;;
58214;SDS011;44011;52.218;1.480;2024-02-14T12:28:56;2.92;;;2.42;;
58214;SDS011;44011;52.218;1.480;2024-02-14T12:31:24;2.60;;;2.30;;
58214;SDS011;44011;52.218;1.480;2024-02-14T12:33:50;4.22;;;2.70;;
58214;SDS011;44011;52.218;1.480;2024-02-14T12:36:19;2.55;;;2.13;;
58214;SDS011;44011;52.218;1.480;2024-02-14T12:38:44;4.60;;;2.08;;
58214;SDS011;44011;52.218;1.480;2024-02-14T12:41:10;2.50;;;2.20;;
58214;SDS011;44011;52.218;1.480;2024-02-14T12:43:35;2.97;;;2.30;;
58214;SDS011;44011;52.218;1.480;2024-02-14T12:46:01;2.55;;;2.20;;
58214;SDS011;44011;52.218;1.480;2024-02-14T12:48:26;2.95;;;1.55;;
58214;SDS011;44011;52.218;1.480;2024-02-14T12:50:52;3.53;;;1.83;;
58214;SDS011;44011;52.218;1.480;2024-02-14T12:53:18;2.05;;;1.60;;
58214;SDS011;44011;52.218;1.480;2024-02-14T12:55:45;1.63;;;1.48;;
58214;SDS011;44011;52.218;1.480;2024-02-14T12:58:10;2.75;;;1.42;;
58214;SDS011;44011;52.218;1.480;2024-02-14T13:00:35;4.57;;;1.45;;
58214;SDS011;44011;52.218;1.480;2024-02-14T13:03:00;2.50;;;1.77;;
58214;SDS011;44011;52.218;1.480;2024-02-14T13:05:26;1.20;;;1.10;;
58214;SDS011;44011;52.218;1.480;2024-02-14T13:07:52;2.10;;;1.40;;
58214;SDS011;44011;52.218;1.480;2024-02-14T13:10:17;1.63;;;1.50;;
58214;SDS011;44011;52.218;1.480;2024-02-14T13:12:43;1.80;;;1.70;;
58214;SDS011;44011;52.218;1.480;2024-02-14T13:15:10;3.25;;;2.13;;
58214;SDS011;44011;52.218;1.480;2024-02-14T13:17:35;3.28;;;1.40;;
58214;SDS011;44011;52.218;1.480;2024-02-14T13:20:00;1.92;;;1.45;;
58214;SDS011;44011;52.218;1.480;2024-02-14T13:22:26;2.67;;;1.75;;
58214;SDS011;44011;52.218;1.480;2024-02-14T13:24:51;1.67;;;1.42;;
58214;SDS011;44011;52.218;1.480;2024-02-14T13:27:17;3.20;;;1.73;;
58214;SDS011;44011;52.218;1.480;2024-02-14T13:29:42;1.83;;;1.73;;
58214;SDS011;44011;52.218;1.480;2024-02-14T13:32:07;3.22;;;2.13;;
58214;SDS011;44011;52.218;1.480;2024-02-14T13:34:33;3.60;;;1.77;;
58214;SDS011;44011;52.218;1.480;2024-02-14T13:36:59;2.60;;;1.55;;
58214;SDS011;44011;52.218;1.480;2024-02-14T13:39:24;2.05;;;1.90;;
58214;SDS011;44011;52.218;1.480;2024-02-14T13:41:50;3.55;;;1.95;;
58214;SDS011;44011;52.218;1.480;2024-02-14T13:44:16;1.58;;;1.48;;
58214;SDS011;44011;52.218;1.480;2024-02-14T13:46:43;1.67;;;1.42;;
58214;SDS011;44011;52.218;1.480;2024-02-14T13:49:08;2.88;;;1.60;;
58214;SDS011;44011;52.218;1.480;2024-02-14T13:51:35;1.95;;;1.48;;
58214;SDS011;44011;52.218;1.480;2024-02-14T13:54:01;2.45;;;2.20;;
58214;SDS011;44011;52.218;1.480;2024-02-14T13:56:26;2.70;;;1.40;;
58214;SDS011;44011;52.218;1.480;2024-02-14T13:58:51;2.88;;;1.60;;
58214;SDS011;44011;52.218;1.480;2024-02-14T14:01:17;2.50;;;1.85;;
58214;SDS011;44011;52.218;1.480;2024-02-14T14:03:42;3.58;;;1.83;;
58214;SDS011;44011;52.218;1.480;2024-02-14T14:06:08;4.15;;;1.80;;
58214;SDS011;44011;52.218;1.480;2024-02-14T14:08:36;1.98;;;1.77;;
58214;SDS011;44011;52.218;1.480;2024-02-14T14:11:04;5.05;;;1.55;;
58214;SDS011;44011;52.218;1.480;2024-02-14T14:13:30;4.50;;;1.80;;
58214;SDS011;44011;52.218;1.480;2024-02-14T14:15:58;3.08;;;1.65;;
58214;SDS011;44011;52.218;1.480;2024-02-14T14:18:23;3.75;;;1.92;;
58214;SDS011;44011;52.218;1.480;2024-02-14T14:20:48;2.97;;;1.73;;
58214;SDS011;44011;52.218;1.480;2024-02-14T14:23:14;2.83;;;1.85;;
58214;SDS011;44011;52.218;1.480;2024-02-14T14:25:39;4.32;;;1.80;;
58214;SDS011;44011;52.218;1.480;2024-02-14T14:28:04;3.08;;;2.00;;
58214;SDS011;44011;52.218;1.480;2024-02-14T14:30:30;2.70;;;1.80;;
58214;SDS011;44011;52.218;1.480;2024-02-14T14:32:55;6.60;;;1.90;;
58214;SDS011;44011;52.218;1.480;2024-02-14T14:35:21;5.05;;;1.90;;
58214;SDS011;44011;52.218;1.480;2024-02-14T14:37:46;2.88;;;1.70;;
58214;SDS011;44011;52.218;1.480;2024-02-14T14:40:11;3.58;;;1.77;;